Terminal Aerodrome Forecast
Issued by NWS

Home | Current Version | Previous Version | Text Only | Print | Product List | Glossary On
Versions: 1 2 3 4 5 6 7 8 9 10 11 12 13 14 15 16 17 18 19 20 21 22 23 24 25 26 27
000
FTUS43 KAPX 241745
TAFTVC
TAF
KTVC 241745Z 2418/2518 02010KT 4SM -RADZ BR OVC005
     FM242100 08016G25KT 2SM -DZ OVC003
     FM250000 06009KT 2SM -RA OVC003
     FM250200 06007KT 3SM -FZRAPL OVC003
     FM250500 11006KT 3SM -FZRA OVC003
     FM250700 25008KT 2SM -SN OVC003
     FM251200 31010G19KT 2SM -SHSN OVC008
     FM251300 31011G20KT 1 1/2SM -SHSN OVC010
     FM251500 31014G24KT 1SM -SHSN BLSN OVC025=

USA.gov is the U.S. government's official web portal to all federal, state and local government web resources and services.